This is the latest recevied weather packets stored in our database for station/object WA6OOO. If no packets are shown the sender has not sent any weather packets the latest 10 day(s).
| Time | Temp. | Humidity | Pressure | Rain* | Wind** | Luminosity | Snow |
|---|---|---|---|---|---|---|---|
| 1777387103 | 13.89° C | 60% | 1021.4 hPa | 0 mm | - | 142 W/m² | - |
| 1777386800 | 13.89° C | 62% | 1021.3 hPa | 0 mm | - | 127 W/m² | - |
| 1777386497 | 13.33° C | 62% | 1021.3 hPa | 0 mm | - | 116 W/m² | - |
| 1777386194 | 12.78° C | 64% | 1021.4 hPa | 0 mm | - | 103 W/m² | - |
| 1777385891 | 12.78° C | 63% | 1021.3 hPa | 0 mm | - | 93 W/m² | - |
| 1777385587 | 12.78° C | 64% | 1021.3 hPa | 0 mm | - | 82 W/m² | - |
| 1777385285 | 12.22° C | 66% | 1021.1 hPa | 0 mm | - | 73 W/m² | - |
| 1777384980 | 12.22° C | 68% | 1020.8 hPa | 0 mm | - | 62 W/m² | - |
| 1777384678 | 12.22° C | 67% | 1020.9 hPa | 0 mm | - | 53 W/m² | - |
| 1777384377 | 11.67° C | 67% | 1020.8 hPa | 0 mm | - | 45 W/m² | - |
| 1777384073 | 11.67° C | 68% | 1020.6 hPa | 0 mm | - | 34 W/m² | - |
| 1777383770 | 11.67° C | 68% | 1020.4 hPa | 0 mm | - | 23 W/m² | - |
| 1777383466 | 11.67° C | 69% | 1020.5 hPa | 0 mm | - | 20 W/m² | - |
| 1777383162 | 11.11° C | 70% | 1020.5 hPa | 0 mm | - | 16 W/m² | - |
| 1777382860 | 11.11° C | 70% | 1020.4 hPa | 0 mm | - | 13 W/m² | - |
| 1777382555 | 10.56° C | 70% | 1020.5 hPa | 0 mm | - | 9 W/m² | - |
| 1777382251 | 10.56° C | 70% | 1020.4 hPa | 0 mm | - | 6 W/m² | - |
| 1777381948 | 10.56° C | 70% | 1020.1 hPa | 0 mm | - | 3 W/m² | - |
| 1777381647 | 11.11° C | 69% | 1020.3 hPa | 0 mm | - | 2 W/m² | - |
| 1777381344 | 10.56° C | 71% | 1020 hPa | 0 mm | - | 1 W/m² | - |
| 1777381040 | 10° C | 76% | 1020 hPa | 0 mm | - | 0 W/m² | - |
| 1777380736 | 10.56° C | 74% | 1019.9 hPa | 0 mm | - | 0 W/m² | - |
| 1777380433 | 11.11° C | 71% | 1019.8 hPa | 0 mm | - | 0 W/m² | - |
| 1777380130 | 11.67° C | 68% | 1019.8 hPa | 0 mm | - | 0 W/m² | - |
| 1777379826 | 11.67° C | 68% | 1019.8 hPa | 0 mm | - | 0 W/m² | - |
* Rain latest hour (hover to see other rain measurements)
** Current wind speed in m/s (hover to see current wind gust speed)